createdAt,value
2023-01-17T00:11:16.908Z,29.47
2023-01-17T00:26:58.491Z,17.23
2023-01-17T00:42:19.945Z,16.20
2023-01-17T00:57:59.952Z,18.47
2023-01-17T01:13:44.232Z,24.60
2023-01-17T01:29:24.351Z,11.93
2023-01-17T01:44:49.663Z,16.23
2023-01-17T02:00:18.741Z,14.97
2023-01-17T02:15:43.370Z,10.03
2023-01-17T02:31:10.436Z,9.43
2023-01-17T02:46:32.060Z,13.93
2023-01-17T03:02:11.998Z,11.17
2023-01-17T03:17:33.840Z,13.60
2023-01-17T03:32:55.461Z,5.20
2023-01-17T03:48:16.890Z,31.30
2023-01-17T04:03:38.257Z,30.47
2023-01-17T04:18:59.689Z,33.53
2023-01-17T04:34:21.112Z,152.20
2023-01-17T04:49:44.082Z,37.13
2023-01-17T05:05:06.102Z,39.33
2023-01-17T05:20:28.104Z,209.27
2023-01-17T05:35:49.609Z,123.63
2023-01-17T05:51:10.901Z,120.67
2023-01-17T06:06:32.632Z,35.10
2023-01-17T06:21:53.829Z,33.50
2023-01-17T06:37:15.364Z,26.33
2023-01-17T06:52:36.930Z,43.03
2023-01-17T07:07:58.639Z,16.73
2023-01-17T07:23:20.531Z,15.87
2023-01-17T07:38:44.215Z,11.00
2023-01-17T07:54:05.566Z,115.03
2023-01-17T08:09:30.301Z,53.37
2023-01-17T08:24:51.798Z,62.97
2023-01-17T08:40:17.339Z,63.27
2023-01-17T08:55:41.800Z,92.70
2023-01-17T09:11:10.024Z,165.17
2023-01-17T09:26:31.846Z,77.67
2023-01-17T09:41:54.865Z,80.27
2023-01-17T09:57:25.547Z,75.70
2023-01-17T10:12:49.754Z,73.57
2023-01-17T10:28:18.465Z,114.97
2023-01-17T10:43:58.870Z,127.97
2023-01-17T10:59:32.891Z,63.47
2023-01-17T11:15:16.071Z,99.57
2023-01-17T11:30:37.493Z,150.93
2023-01-17T11:46:02.196Z,230.33
2023-01-17T12:01:23.821Z,189.17
2023-01-17T12:16:45.394Z,191.77
2023-01-17T12:32:21.946Z,115.17
2023-01-17T12:47:44.625Z,130.93
2023-01-17T13:03:09.700Z,150.90
2023-01-17T13:18:33.556Z,48.70
2023-01-17T13:34:07.846Z,140.30
2023-01-17T13:49:32.008Z,82.90
2023-01-17T14:05:12.496Z,100.73
2023-01-17T14:20:37.602Z,84.93
2023-01-17T14:35:59.819Z,115.20
2023-01-17T14:51:23.057Z,123.83
2023-01-17T15:06:47.370Z,111.70
2023-01-17T15:22:09.522Z,117.77
2023-01-17T15:37:34.646Z,110.63
2023-01-17T15:53:01.381Z,111.77
2023-01-17T16:08:30.376Z,101.97
2023-01-17T16:23:52.235Z,161.30
2023-01-17T16:39:14.762Z,80.33
2023-01-17T16:54:36.114Z,72.47
2023-01-17T17:09:57.294Z,56.73
2023-01-17T17:25:19.490Z,105.37
2023-01-17T17:40:40.840Z,109.07
2023-01-17T17:56:05.946Z,48.60
2023-01-17T18:11:27.407Z,118.10
2023-01-17T18:26:50.328Z,84.67
2023-01-17T18:42:12.221Z,80.20
2023-01-17T18:57:33.985Z,209.90
2023-01-17T19:12:55.212Z,135.70
2023-01-17T19:28:16.637Z,137.13
2023-01-17T19:43:38.303Z,260.57
2023-01-17T19:59:02.151Z,161.07
2023-01-17T20:14:23.954Z,262.10
2023-01-17T20:29:45.553Z,174.27
2023-01-17T20:45:07.822Z,200.07
2023-01-17T21:00:29.245Z,167.97
2023-01-17T21:15:50.444Z,174.90
2023-01-17T21:31:24.838Z,127.13
2023-01-17T21:46:46.295Z,61.17
2023-01-17T22:02:10.830Z,131.67
2023-01-17T22:17:32.275Z,84.90
2023-01-17T22:32:53.762Z,56.97
2023-01-17T22:48:14.934Z,130.97
2023-01-17T23:03:36.567Z,189.13
2023-01-17T23:19:30.769Z,257.20
2023-01-17T23:34:52.109Z,206.77
2023-01-17T23:50:13.185Z,54.13
